createdAt,value
2023-02-14T00:01:24.585Z,19.65
2023-02-14T00:03:52.937Z,36.80
2023-02-14T00:06:21.058Z,84.78
2023-02-14T00:08:48.996Z,33.42
2023-02-14T00:11:18.302Z,141.82
2023-02-14T00:14:06.230Z,71.32
2023-02-14T00:16:33.223Z,86.75
2023-02-14T00:19:04.282Z,62.83
2023-02-14T00:21:32.694Z,92.18
2023-02-14T00:24:00.685Z,130.23
2023-02-14T00:26:30.109Z,27.13
2023-02-14T00:28:58.120Z,27.38
2023-02-14T00:31:26.298Z,434.05
2023-02-14T00:33:55.190Z,400.92
2023-02-14T00:36:23.253Z,262.20
2023-02-14T00:38:51.195Z,152.60
2023-02-14T00:41:20.193Z,145.45
2023-02-14T00:43:51.008Z,23.95
2023-02-14T00:46:20.424Z,27.27
2023-02-14T00:48:48.804Z,28.45
2023-02-14T00:51:18.534Z,58.03
2023-02-14T00:53:47.459Z,20.45
2023-02-14T00:56:15.947Z,24.55
2023-02-14T00:58:44.146Z,21.25
2023-02-14T01:01:14.611Z,274.50
2023-02-14T01:03:42.653Z,43.85
2023-02-14T01:06:10.884Z,26.60
2023-02-14T01:08:38.863Z,47.33
2023-02-14T01:11:11.436Z,206.55
2023-02-14T01:16:09.874Z,26.98
2023-02-14T01:18:39.916Z,14.88
2023-02-14T01:21:16.244Z,18.75
2023-02-14T01:23:45.200Z,15.63
2023-02-14T01:26:13.234Z,18.90
2023-02-14T01:28:41.517Z,18.45
2023-02-14T01:31:11.972Z,16.50
2023-02-14T01:33:43.343Z,20.63
2023-02-14T01:36:17.381Z,110.00
2023-02-14T01:38:45.331Z,14.05
2023-02-14T01:41:13.488Z,15.48
2023-02-14T01:43:59.846Z,15.60
2023-02-14T01:46:29.944Z,14.65
2023-02-14T01:49:03.762Z,16.20
2023-02-14T01:51:33.439Z,11.93
2023-02-14T01:54:02.499Z,13.20
2023-02-14T01:56:35.105Z,13.15
2023-02-14T01:59:08.980Z,14.05
2023-02-14T02:01:37.145Z,83.55
2023-02-14T02:04:11.002Z,17.95
2023-02-14T02:06:42.706Z,22.23
2023-02-14T02:09:16.014Z,15.43
2023-02-14T02:11:44.740Z,11.40
2023-02-14T02:14:18.088Z,59.63
2023-02-14T02:17:00.441Z,22.17
2023-02-14T02:20:08.136Z,144.23
2023-02-14T02:22:57.907Z,85.63
2023-02-14T02:25:46.575Z,14.85
2023-02-14T02:28:44.986Z,195.73
2023-02-14T02:31:32.006Z,291.75
2023-02-14T02:34:37.113Z,192.82
2023-02-14T02:37:20.428Z,147.63
2023-02-14T02:40:04.694Z,38.72
2023-02-14T02:42:44.810Z,17.70
2023-02-14T02:45:24.575Z,19.73
2023-02-14T02:47:58.932Z,14.68
2023-02-14T02:50:48.936Z,13.38
2023-02-14T02:53:26.935Z,13.13
2023-02-14T02:56:16.661Z,14.10
2023-02-14T02:58:49.436Z,12.45
2023-02-14T03:01:21.728Z,11.70
2023-02-14T03:04:10.330Z,13.15
2023-02-14T03:06:38.296Z,18.27
2023-02-14T03:09:42.105Z,27.80
2023-02-14T03:12:19.555Z,13.82
2023-02-14T03:14:51.508Z,11.77
2023-02-14T03:17:30.297Z,13.20
2023-02-14T03:20:15.661Z,12.43
2023-02-14T03:22:52.892Z,13.13
2023-02-14T03:25:38.018Z,13.00
2023-02-14T03:28:14.508Z,16.73
2023-02-14T03:30:50.271Z,11.60
2023-02-14T03:33:23.938Z,19.33
2023-02-14T03:36:01.929Z,15.85
2023-02-14T03:38:35.656Z,35.13
2023-02-14T03:41:09.563Z,30.35
2023-02-14T03:43:42.192Z,20.10
2023-02-14T03:48:42.247Z,12.48
2023-02-14T03:51:14.406Z,18.02
2023-02-14T03:53:45.441Z,31.05
2023-02-14T03:56:20.077Z,13.60
2023-02-14T03:58:51.362Z,23.98
2023-02-14T04:01:22.590Z,35.78
2023-02-14T04:03:51.676Z,14.45
2023-02-14T04:06:20.019Z,12.82
2023-02-14T04:08:47.998Z,12.38
2023-02-14T04:11:17.644Z,11.35
2023-02-14T04:13:45.701Z,13.55
2023-02-14T04:16:13.858Z,37.70
2023-02-14T04:18:59.180Z,16.67
2023-02-14T04:21:27.367Z,87.63
2023-02-14T04:23:55.270Z,20.90
2023-02-14T04:26:24.865Z,33.60
2023-02-14T04:28:52.850Z,15.55
2023-02-14T04:31:20.991Z,12.73
2023-02-14T04:33:51.183Z,13.68
2023-02-14T04:36:19.143Z,13.75
2023-02-14T04:38:47.086Z,11.23
2023-02-14T04:41:15.092Z,12.95
2023-02-14T04:43:44.468Z,11.68
2023-02-14T04:46:12.499Z,14.55
2023-02-14T04:48:40.501Z,15.02
2023-02-14T04:51:08.534Z,12.63
2023-02-14T04:53:40.146Z,15.00
2023-02-14T04:56:08.811Z,14.23
2023-02-14T04:58:36.957Z,13.93
2023-02-14T05:01:06.549Z,13.80
2023-02-14T05:03:34.576Z,13.57
2023-02-14T05:06:02.548Z,13.82
2023-02-14T05:08:30.794Z,13.95
2023-02-14T05:10:59.324Z,14.82
2023-02-14T05:13:28.580Z,13.52
2023-02-14T05:15:56.743Z,15.30
2023-02-14T05:18:26.798Z,14.75
2023-02-14T05:20:55.784Z,12.38
2023-02-14T05:23:24.033Z,13.00
2023-02-14T05:25:52.953Z,15.98
2023-02-14T05:28:21.636Z,12.10
2023-02-14T05:30:51.070Z,14.00
2023-02-14T05:33:19.463Z,15.00
2023-02-14T05:35:48.818Z,13.23
2023-02-14T05:38:16.813Z,13.55
2023-02-14T05:40:45.306Z,13.93
2023-02-14T05:43:13.375Z,12.90
2023-02-14T05:45:41.352Z,15.43
2023-02-14T05:48:09.263Z,11.52
2023-02-14T05:50:37.215Z,13.82
2023-02-14T05:53:06.561Z,13.80
2023-02-14T05:55:34.748Z,12.85
2023-02-14T05:58:03.019Z,12.98
2023-02-14T06:00:31.148Z,13.95
2023-02-14T06:02:59.154Z,13.65
2023-02-14T06:05:27.209Z,12.25
2023-02-14T06:07:55.304Z,12.65
2023-02-14T06:10:26.392Z,13.85
2023-02-14T06:12:55.383Z,11.75
2023-02-14T06:15:23.320Z,13.75
2023-02-14T06:17:55.787Z,12.90
2023-02-14T06:22:53.214Z,12.10
2023-02-14T06:25:21.682Z,15.35
2023-02-14T06:27:50.938Z,13.15
2023-02-14T06:30:19.638Z,11.95
2023-02-14T06:32:47.601Z,14.00
2023-02-14T06:35:15.746Z,12.30
2023-02-14T06:37:45.265Z,12.13
2023-02-14T06:40:14.878Z,11.68
2023-02-14T06:42:43.539Z,11.60
2023-02-14T06:45:13.025Z,10.70
2023-02-14T06:47:41.087Z,11.88
2023-02-14T06:50:11.641Z,11.02
2023-02-14T06:52:39.945Z,11.65
2023-02-14T06:55:08.730Z,11.68
2023-02-14T06:57:36.682Z,11.57
2023-02-14T07:00:05.388Z,10.27
2023-02-14T07:02:34.784Z,10.60
2023-02-14T07:05:02.808Z,11.95
2023-02-14T07:07:30.787Z,10.38
2023-02-14T07:09:58.727Z,11.88
2023-02-14T07:12:26.701Z,11.38
2023-02-14T07:14:54.585Z,12.13
2023-02-14T07:17:22.774Z,11.20
2023-02-14T07:19:52.140Z,13.38
2023-02-14T07:22:20.225Z,11.15
2023-02-14T07:24:48.294Z,12.27
2023-02-14T07:27:16.232Z,11.95
2023-02-14T07:29:44.323Z,12.27
2023-02-14T07:32:12.418Z,11.05
2023-02-14T07:34:40.504Z,10.77
2023-02-14T07:37:10.001Z,12.18
2023-02-14T07:39:37.978Z,11.95
2023-02-14T07:42:06.496Z,12.20
2023-02-14T07:44:34.420Z,11.32
2023-02-14T07:47:02.312Z,14.45
2023-02-14T07:49:30.271Z,11.43
2023-02-14T07:51:58.379Z,11.43
2023-02-14T07:54:27.904Z,11.43
2023-02-14T07:56:55.929Z,11.10
2023-02-14T07:59:25.936Z,11.75
2023-02-14T08:01:54.352Z,14.75
2023-02-14T08:04:25.934Z,19.80
2023-02-14T08:06:54.486Z,24.20
2023-02-14T08:09:25.751Z,16.13
2023-02-14T08:12:14.118Z,11.82
2023-02-14T08:14:42.353Z,13.85
2023-02-14T08:17:11.202Z,15.30
2023-02-14T08:19:39.370Z,14.07
2023-02-14T08:22:08.596Z,11.55
2023-02-14T08:24:36.539Z,13.02
2023-02-14T08:27:05.842Z,13.05
2023-02-14T08:29:33.826Z,13.98
2023-02-14T08:32:01.927Z,19.15
2023-02-14T08:34:30.012Z,11.50
2023-02-14T08:36:57.997Z,18.80
2023-02-14T08:39:26.127Z,16.70
2023-02-14T08:41:54.100Z,16.50
2023-02-14T08:44:23.659Z,14.90
2023-02-14T08:46:51.773Z,14.82
2023-02-14T08:49:19.894Z,20.20
2023-02-14T08:51:47.940Z,21.15
2023-02-14T08:54:25.738Z,20.35
2023-02-14T08:56:53.869Z,15.13
2023-02-14T08:59:23.178Z,19.98
2023-02-14T09:01:51.188Z,15.15
2023-02-14T09:04:19.221Z,17.83
2023-02-14T09:06:47.319Z,19.55
2023-02-14T09:09:17.382Z,15.45
2023-02-14T09:11:45.360Z,14.77
2023-02-14T09:14:13.447Z,20.83
2023-02-14T09:16:42.965Z,20.33
2023-02-14T09:19:10.961Z,23.80
2023-02-14T09:21:38.910Z,19.23
2023-02-14T09:24:07.116Z,18.20
2023-02-14T09:26:36.901Z,26.23
2023-02-14T09:29:04.862Z,26.08
2023-02-14T09:31:33.100Z,25.58
2023-02-14T09:34:04.590Z,22.73
2023-02-14T09:36:32.616Z,18.30
2023-02-14T09:39:00.711Z,14.50
2023-02-14T09:41:55.096Z,18.83
2023-02-14T09:44:30.241Z,22.67
2023-02-14T09:47:03.945Z,17.83
2023-02-14T09:49:37.435Z,20.58
2023-02-14T09:52:08.790Z,25.92
2023-02-14T09:54:38.140Z,20.02
2023-02-14T09:57:14.529Z,16.30
2023-02-14T09:59:49.659Z,18.55
2023-02-14T10:02:41.451Z,25.38
2023-02-14T10:05:16.540Z,20.48
2023-02-14T10:08:01.628Z,20.17
2023-02-14T10:10:39.531Z,16.50
2023-02-14T10:13:13.865Z,24.33
2023-02-14T10:15:44.984Z,18.52
2023-02-14T10:18:18.939Z,13.52
2023-02-14T10:20:51.550Z,16.38
2023-02-14T10:26:03.323Z,14.05
2023-02-14T10:28:35.834Z,19.98
2023-02-14T10:33:57.393Z,17.08
2023-02-14T10:36:44.784Z,15.35
2023-02-14T10:39:29.079Z,14.65
2023-02-14T10:42:01.984Z,15.10
2023-02-14T10:44:44.531Z,13.32
2023-02-14T10:47:27.477Z,15.32
2023-02-14T10:50:03.297Z,16.88
2023-02-14T10:52:40.510Z,14.70
2023-02-14T10:55:31.566Z,16.88
2023-02-14T10:58:02.652Z,16.23
2023-02-14T11:00:35.294Z,13.43
2023-02-14T11:03:07.672Z,13.82
2023-02-14T11:05:39.064Z,17.63
2023-02-14T11:08:16.880Z,17.63
2023-02-14T11:10:45.631Z,19.83
2023-02-14T11:13:37.235Z,16.10
2023-02-14T11:16:08.895Z,14.63
2023-02-14T11:18:40.298Z,15.53
2023-02-14T11:21:11.480Z,17.30
2023-02-14T11:23:43.217Z,21.25
2023-02-14T11:26:17.594Z,16.03
2023-02-14T11:28:52.136Z,17.67
2023-02-14T11:31:32.345Z,14.48
2023-02-14T11:34:04.360Z,16.17
2023-02-14T11:39:10.362Z,19.38
2023-02-14T11:41:50.295Z,16.08
2023-02-14T11:44:23.422Z,14.43
2023-02-14T11:46:53.642Z,13.27
2023-02-14T11:49:33.559Z,11.20
2023-02-14T11:52:10.581Z,13.40
2023-02-14T11:54:42.401Z,14.52
2023-02-14T11:57:15.117Z,14.07
2023-02-14T12:02:24.349Z,12.80
2023-02-14T12:04:56.781Z,12.38
2023-02-14T12:07:29.711Z,13.00
2023-02-14T12:10:19.986Z,10.55
2023-02-14T12:12:54.135Z,14.18
2023-02-14T12:15:29.087Z,14.13
2023-02-14T12:18:17.276Z,11.43
2023-02-14T12:20:53.004Z,14.20
2023-02-14T12:23:27.664Z,14.20
2023-02-14T12:26:02.294Z,15.10
2023-02-14T12:28:38.461Z,11.32
2023-02-14T12:31:12.144Z,11.70
2023-02-14T12:33:40.537Z,10.95
2023-02-14T12:36:17.632Z,12.75
2023-02-14T12:38:55.754Z,12.38
2023-02-14T12:41:40.076Z,11.27
2023-02-14T12:44:18.877Z,9.23
2023-02-14T12:47:44.598Z,10.70
2023-02-14T12:50:35.024Z,11.10
2023-02-14T12:53:25.399Z,9.35
2023-02-14T12:56:01.365Z,10.50
2023-02-14T12:58:41.456Z,7.68
2023-02-14T13:01:38.427Z,9.00
2023-02-14T13:04:43.703Z,10.70
2023-02-14T13:07:23.724Z,6.72
2023-02-14T13:09:59.472Z,11.23
2023-02-14T13:12:36.222Z,9.10
2023-02-14T13:15:19.809Z,11.20
2023-02-14T13:17:54.402Z,5.90
2023-02-14T13:20:41.210Z,9.52
2023-02-14T13:23:15.045Z,10.27
2023-02-14T13:25:49.938Z,11.88
2023-02-14T13:28:19.732Z,10.02
2023-02-14T13:30:48.011Z,12.07
2023-02-14T14:06:00.551Z,11.00
2023-02-14T14:08:55.077Z,8.50
2023-02-14T14:11:51.940Z,12.63
2023-02-14T14:14:37.382Z,10.95
2023-02-14T14:17:23.063Z,10.25
2023-02-14T14:19:51.671Z,9.82
2023-02-14T14:22:22.540Z,12.38
2023-02-14T14:25:15.417Z,11.75
2023-02-14T14:30:20.579Z,12.73
2023-02-14T14:32:48.585Z,12.18
2023-02-14T14:35:23.466Z,10.88
2023-02-14T14:37:55.016Z,17.83
2023-02-14T14:40:28.593Z,15.32
2023-02-14T14:43:01.597Z,15.32
2023-02-14T14:45:31.352Z,14.50
2023-02-14T14:48:01.544Z,14.80
2023-02-14T14:50:32.970Z,17.05
2023-02-14T14:53:18.064Z,18.00
2023-02-14T14:55:52.350Z,14.68
2023-02-14T14:58:39.655Z,14.65
2023-02-14T15:01:09.345Z,21.48
2023-02-14T15:03:38.637Z,16.80
2023-02-14T15:06:11.280Z,21.90
2023-02-14T15:11:12.020Z,19.52
2023-02-14T15:13:53.553Z,21.55
2023-02-14T15:16:25.772Z,18.63
2023-02-14T15:18:56.936Z,19.42
2023-02-14T15:21:29.624Z,21.25
2023-02-14T15:23:59.315Z,22.02
2023-02-14T15:26:31.466Z,20.27
2023-02-14T15:29:07.785Z,21.00
2023-02-14T15:31:40.900Z,21.73
2023-02-14T15:34:13.592Z,24.70
2023-02-14T15:36:53.920Z,22.52
2023-02-14T15:39:28.469Z,26.42
2023-02-14T15:41:56.620Z,28.17
2023-02-14T15:44:26.432Z,28.45
2023-02-14T15:47:00.788Z,31.35
2023-02-14T15:49:35.014Z,27.42
2023-02-14T15:52:05.685Z,28.35
2023-02-14T15:54:39.309Z,24.75
2023-02-14T15:57:23.038Z,24.58
2023-02-14T15:59:57.023Z,30.42
2023-02-14T16:02:33.743Z,24.33
2023-02-14T16:05:16.705Z,27.85
2023-02-14T16:08:01.171Z,28.73
2023-02-14T16:10:33.113Z,24.40
2023-02-14T16:13:04.223Z,29.10
2023-02-14T16:15:36.804Z,25.83
2023-02-14T16:18:18.127Z,28.30
2023-02-14T16:20:48.975Z,32.35
2023-02-14T16:23:20.571Z,37.67
2023-02-14T16:25:55.739Z,58.70
2023-02-14T16:28:23.859Z,40.17
2023-02-14T16:30:56.398Z,38.65
2023-02-14T16:35:54.745Z,31.00
2023-02-14T16:38:23.684Z,31.50
2023-02-14T16:40:55.528Z,35.83
2023-02-14T16:43:23.592Z,36.47
2023-02-14T16:45:51.695Z,33.70
2023-02-14T16:48:25.994Z,40.63
2023-02-14T16:50:54.507Z,42.80
2023-02-14T16:53:28.267Z,38.15
2023-02-14T16:55:59.016Z,36.92
2023-02-14T17:01:23.528Z,36.70
2023-02-14T17:03:51.731Z,33.63
2023-02-14T17:06:47.115Z,31.15
2023-02-14T17:09:17.691Z,39.53
2023-02-14T17:11:50.189Z,43.03
2023-02-14T17:14:23.004Z,37.08
2023-02-14T17:16:51.976Z,37.03
2023-02-14T17:19:20.091Z,38.38
2023-02-14T17:21:48.795Z,32.33
2023-02-14T17:24:17.035Z,32.22
2023-02-14T17:26:46.634Z,31.95
2023-02-14T17:29:14.664Z,39.60
2023-02-14T17:31:43.039Z,32.00
2023-02-14T17:34:11.909Z,29.65
2023-02-14T17:36:39.927Z,36.00
2023-02-14T17:39:08.248Z,32.33
2023-02-14T17:41:36.285Z,28.55
2023-02-14T17:44:07.212Z,31.50
2023-02-14T17:46:35.261Z,29.45
2023-02-14T17:49:21.824Z,25.23
2023-02-14T17:52:10.003Z,27.73
2023-02-14T17:54:56.598Z,28.20
2023-02-14T17:57:24.692Z,25.80
2023-02-14T17:59:54.133Z,24.52
2023-02-14T18:02:22.163Z,26.90
2023-02-14T18:04:50.299Z,25.50
2023-02-14T18:07:18.299Z,21.67
2023-02-14T18:09:46.309Z,23.88
2023-02-14T18:12:15.165Z,22.55
2023-02-14T18:14:43.390Z,24.85
2023-02-14T18:17:14.523Z,24.23
2023-02-14T18:19:42.887Z,23.02
2023-02-14T18:22:11.065Z,34.72
2023-02-14T18:24:39.157Z,31.05
2023-02-14T18:27:09.699Z,34.53
2023-02-14T18:29:39.285Z,49.10
2023-02-14T18:32:07.355Z,33.08
2023-02-14T18:34:38.721Z,29.60
2023-02-14T18:37:07.043Z,31.13
2023-02-14T18:39:35.096Z,30.85
2023-02-14T18:42:03.690Z,32.60
2023-02-14T18:44:33.348Z,33.45
2023-02-14T18:47:02.611Z,33.40
2023-02-14T18:49:31.028Z,30.70
2023-02-14T18:52:01.315Z,32.33
2023-02-14T18:54:29.744Z,33.63
2023-02-14T18:56:58.148Z,32.35
2023-02-14T18:59:26.378Z,33.75
2023-02-14T19:01:54.555Z,31.23
2023-02-14T19:04:22.751Z,33.83
2023-02-14T19:06:50.973Z,34.95
2023-02-14T19:09:20.514Z,34.97
2023-02-14T19:11:48.727Z,33.70
2023-02-14T19:14:19.116Z,30.52
2023-02-14T19:16:51.166Z,37.55
2023-02-14T19:19:19.704Z,28.95
2023-02-14T19:21:48.480Z,30.63
2023-02-14T19:24:17.612Z,34.05
2023-02-14T19:26:48.350Z,29.65
2023-02-14T19:29:22.748Z,30.70
2023-02-14T19:31:54.658Z,32.67
2023-02-14T19:34:27.266Z,29.80
2023-02-14T19:36:59.091Z,30.38
2023-02-14T19:39:29.421Z,31.05
2023-02-14T19:42:00.065Z,29.20
2023-02-14T19:44:30.150Z,29.50
2023-02-14T19:47:00.159Z,27.65
2023-02-14T19:49:30.202Z,31.10
2023-02-14T19:51:58.941Z,30.48
2023-02-14T19:54:27.183Z,27.60
2023-02-14T19:56:56.408Z,30.20
2023-02-14T19:59:27.897Z,28.85
2023-02-14T20:01:56.854Z,27.85
2023-02-14T20:04:27.517Z,31.27
2023-02-14T20:06:56.513Z,29.65
2023-02-14T20:09:25.618Z,28.35
2023-02-14T20:11:55.317Z,26.90
2023-02-14T20:14:27.346Z,28.27
2023-02-14T20:17:04.682Z,31.40
2023-02-14T20:19:37.040Z,28.73
2023-02-14T20:22:08.141Z,27.92
2023-02-14T20:24:36.198Z,26.13
2023-02-14T20:27:04.450Z,31.15
2023-02-14T20:29:33.987Z,27.58
2023-02-14T20:32:04.960Z,26.52
2023-02-14T20:34:33.168Z,28.27
2023-02-14T20:37:01.177Z,26.00
2023-02-14T20:39:31.153Z,28.23
2023-02-14T20:41:59.428Z,26.48
2023-02-14T20:44:31.232Z,27.13
2023-02-14T20:47:00.793Z,27.92
2023-02-14T20:49:31.097Z,25.15
2023-02-14T20:51:59.392Z,29.92
2023-02-14T20:54:28.760Z,31.58
2023-02-14T20:56:59.893Z,36.13
2023-02-14T20:59:29.450Z,28.67
2023-02-14T21:02:00.383Z,27.60
2023-02-14T21:04:29.955Z,36.45
2023-02-14T21:07:00.256Z,32.55
2023-02-14T21:09:28.350Z,31.92
2023-02-14T21:11:59.079Z,32.50
2023-02-14T21:14:27.394Z,32.47
2023-02-14T21:16:57.846Z,32.05
2023-02-14T21:19:28.631Z,36.25
2023-02-14T21:21:56.657Z,40.35
2023-02-14T21:24:24.986Z,40.67
2023-02-14T21:26:53.120Z,49.22
2023-02-14T21:29:21.480Z,44.75
2023-02-14T21:31:49.589Z,51.00
2023-02-14T21:34:17.996Z,47.92
2023-02-14T21:36:49.909Z,43.58
2023-02-14T21:39:19.017Z,26.23
2023-02-14T21:41:47.348Z,39.10
2023-02-14T21:44:39.449Z,43.95
2023-02-14T21:47:07.419Z,30.05
2023-02-14T21:49:53.271Z,35.65
2023-02-14T21:52:22.733Z,31.42
2023-02-14T21:54:50.801Z,30.33
2023-02-14T21:57:19.198Z,40.20
2023-02-14T21:59:50.184Z,30.38
2023-02-14T22:02:21.272Z,30.08
2023-02-14T22:04:51.926Z,35.17
2023-02-14T22:07:20.306Z,36.63
2023-02-14T22:09:51.767Z,39.05
2023-02-14T22:12:24.733Z,31.40
2023-02-14T22:14:58.634Z,50.28
2023-02-14T22:17:26.767Z,26.70
2023-02-14T22:19:56.182Z,31.40
2023-02-14T22:22:24.519Z,29.80
2023-02-14T22:24:59.053Z,36.85
2023-02-14T22:27:30.379Z,34.78
2023-02-14T22:29:58.589Z,33.80
2023-02-14T22:32:32.360Z,32.72
2023-02-14T22:35:07.627Z,38.03
2023-02-14T22:37:39.034Z,36.67
2023-02-14T22:40:15.358Z,35.28
2023-02-14T22:42:48.258Z,36.78
2023-02-14T22:45:20.803Z,36.22
2023-02-14T22:50:16.992Z,38.63
2023-02-14T22:52:45.096Z,38.03
2023-02-14T22:55:16.197Z,36.53
2023-02-14T22:57:44.392Z,37.15
2023-02-14T23:00:13.523Z,36.72
2023-02-14T23:02:41.782Z,33.95
2023-02-14T23:05:12.718Z,36.20
2023-02-14T23:07:43.423Z,29.25
2023-02-14T23:10:12.439Z,28.95
2023-02-14T23:13:00.798Z,36.95
2023-02-14T23:15:46.182Z,37.13
2023-02-14T23:18:32.012Z,36.97
2023-02-14T23:21:17.413Z,32.85
2023-02-14T23:23:45.529Z,31.58
2023-02-14T23:26:13.753Z,30.60
2023-02-14T23:28:43.308Z,29.63
2023-02-14T23:31:11.581Z,29.48
2023-02-14T23:33:44.070Z,40.60
2023-02-14T23:38:42.755Z,35.60
2023-02-14T23:41:34.174Z,41.40
2023-02-14T23:44:06.238Z,37.28
2023-02-14T23:46:34.694Z,38.30
2023-02-14T23:49:06.799Z,34.42
2023-02-14T23:51:37.899Z,33.22
2023-02-14T23:54:06.862Z,35.15
2023-02-14T23:56:35.951Z,34.40
2023-02-14T23:59:05.809Z,36.95
